Nearby METAR Reports

 

KFRG - , , USA
Distance from station: SSW 12mi, 20km
Updated: 07/12/2020 4:53am
Clear
Clear
 Wind from WSW
Wind: WSW 9 mph , 15 km/h
Temperature: 75°F , 24°C
Dew Point: 64°F , 18°C
Humidity: 69%
Barometer: 29.68 inHg , 1005.1 hPa
Clouds: Clear
Visibility: 10 miles , 16 km
2020/07/12 08:53 KFRG 120853Z AUTO 25008KT 10SM CLR 24/18 A2968 RMK AO2 SLP050 T02390183 53005
KISP - , , USA
Distance from station: ESE 14mi, 23km
Updated: 07/12/2020 4:56am
Clear
Clear
 Wind from WSW
Wind: WSW 7 mph , 11 km/h
Temperature: 72°F , 22°C
Dew Point: 66°F , 19°C
Humidity: 83%
Barometer: 29.68 inHg , 1005.1 hPa
Clouds: Clear
Visibility: 10 miles , 16 km
2020/07/12 08:56 KISP 120856Z AUTO 25006KT 10SM CLR 22/19 A2968 RMK AO2 SLP048 T02170189 53006 $
 
KBDR - , , USA
Distance from station: NNE 21mi, 34km
Updated: 07/12/2020 4:52am
Clear
Clear
 Wind from SW
Wind: SW 14 mph , 22 km/h
Temperature: 73°F , 23°C
Dew Point: 66°F , 19°C
Humidity: 78%
Barometer: 29.66 inHg , 1004.4 hPa
Clouds: Clear
Visibility: 10 miles , 16 km
2020/07/12 08:52 KBDR 120852Z AUTO 23012KT 10SM CLR 23/19 A2966 RMK AO2 SLP042 T02330194 53004
KHPN - , , USA
Distance from station: WNW 22mi, 35km
Updated: 07/12/2020 4:56am
Clear
Clear
 Wind from WSW
Wind: WSW 6 mph , 9 km/h
Temperature: 70°F , 21°C
Dew Point: 64°F , 18°C
Humidity: 83%
Barometer: 29.67 inHg , 1004.7 hPa
Clouds: Clear
Visibility: 10 miles , 16 km
2020/07/12 08:56 KHPN 120856Z 24005KT 10SM CLR 21/18 A2967 RMK AO2 SLP042 T02060178 53004 $
 
KHWV - , , USA
Distance from station: ESE 26mi, 41km
Updated: 07/12/2020 4:56am
Clear
Clear
 Wind from WSW
Wind: WSW 6 mph , 9 km/h
Temperature: 73°F , 23°C
Dew Point: 64°F , 18°C
Humidity: 74%
Barometer: 29.68 inHg , 1005.1 hPa
Clouds: Clear
Visibility: 10 miles , 16 km
2020/07/12 08:56 KHWV 120856Z AUTO 24005KT 10SM CLR 23/18 A2968 RMK AO2 SLP049 T02280183 53006
KJFK - , , USA
Distance from station: SW 29mi, 46km
Updated: 07/12/2020 4:51am
Clear
Clear
 Wind from WSW
Wind: WSW 12 mph , 19 km/h
Temperature: 73°F , 23°C
Dew Point: 64°F , 18°C
Humidity: 74%
Barometer: 29.69 inHg , 1005.4 hPa
Clouds: Clear
Visibility: 10 miles , 16 km
2020/07/12 08:51 KJFK 120851Z 25010KT 10SM CLR 23/18 A2969 RMK AO2 SLP053 T02330183 53001 $
 
KLGA - , , USA
Distance from station: WSW 29mi, 47km
Updated: 07/12/2020 4:51am
Clear
Clear
 Wind from WSW
Wind: WSW 12 mph , 19 km/h
Temperature: 75°F , 24°C
Dew Point: 63°F , 17°C
Humidity: 65%
Barometer: 29.67 inHg , 1004.7 hPa
Clouds: Clear
Visibility: 10 miles , 16 km
2020/07/12 08:51 KLGA 120851Z 24010KT 10SM CLR 24/17 A2967 RMK AO2 SLP047 T02440172 51003 $